createdAt,value
2023-01-07T00:00:01.953Z,98106.19
2023-01-07T00:02:03.362Z,98107.00
2023-01-07T00:04:04.782Z,98112.91
2023-01-07T00:06:06.334Z,98108.59
2023-01-07T00:08:07.633Z,98110.22
2023-01-07T00:10:08.947Z,98105.91
2023-01-07T00:12:10.291Z,98109.22
2023-01-07T00:14:11.635Z,98105.00
2023-01-07T00:16:13.075Z,98102.47
2023-01-07T00:18:14.396Z,98106.50
2023-01-07T00:20:15.693Z,98104.19
2023-01-07T00:22:17.005Z,98112.75
2023-01-07T00:24:18.722Z,98109.59
2023-01-07T00:26:20.128Z,98096.47
2023-01-07T00:28:21.427Z,98104.44
2023-01-07T00:30:22.729Z,98099.41
2023-01-07T00:32:43.978Z,98093.06
2023-01-07T00:34:45.285Z,98101.38
2023-01-07T00:36:46.618Z,98098.63
2023-01-07T00:38:47.932Z,98094.25
2023-01-07T00:40:49.289Z,98092.44
2023-01-07T00:43:04.983Z,98095.72
2023-01-07T00:45:06.284Z,98081.97
2023-01-07T00:47:07.633Z,98079.34
2023-01-07T00:49:08.971Z,98077.50
2023-01-07T00:51:10.259Z,98081.66
2023-01-07T00:53:11.581Z,98081.56
2023-01-07T00:55:14.969Z,98086.59
2023-01-07T00:57:16.299Z,98089.16
2023-01-07T00:59:17.626Z,98091.63
2023-01-07T01:01:19.055Z,98089.94
2023-01-07T01:03:20.416Z,98078.00
2023-01-07T01:05:21.746Z,98076.28
2023-01-07T01:07:23.075Z,98077.94
2023-01-07T01:09:26.373Z,98081.38
2023-01-07T01:11:27.671Z,98090.78
2023-01-07T01:13:28.964Z,98088.28
2023-01-07T01:15:30.258Z,98096.81
2023-01-07T01:17:31.560Z,98096.88
2023-01-07T01:19:32.861Z,98095.28
2023-01-07T01:21:34.203Z,98094.44
2023-01-07T01:23:35.544Z,98102.22
2023-01-07T01:25:36.841Z,98098.03
2023-01-07T01:27:38.221Z,98095.59
2023-01-07T01:29:39.532Z,98091.41
2023-01-07T01:31:40.840Z,98098.28
2023-01-07T01:33:42.227Z,98093.28
2023-01-07T01:35:43.544Z,98083.97
2023-01-07T01:37:44.850Z,98091.78
2023-01-07T01:39:46.170Z,98080.81
2023-01-07T01:41:47.476Z,98083.44
2023-01-07T01:43:48.829Z,98081.72
2023-01-07T01:45:50.167Z,98086.88
2023-01-07T01:47:51.519Z,98077.53
2023-01-07T01:49:52.862Z,98076.69
2023-01-07T01:51:54.158Z,98086.94
2023-01-07T01:53:55.489Z,98084.38
2023-01-07T01:55:56.829Z,98081.81
2023-01-07T01:57:58.125Z,98086.13
2023-01-07T01:59:59.681Z,98085.25
2023-01-07T02:02:01.074Z,98083.56
2023-01-07T02:04:02.486Z,98086.13
2023-01-07T02:06:03.833Z,98086.09
2023-01-07T02:08:05.140Z,98074.13
2023-01-07T02:10:06.431Z,98079.16
2023-01-07T02:12:07.779Z,98077.41
2023-01-07T02:14:09.112Z,98077.41
2023-01-07T02:16:10.456Z,98070.59
2023-01-07T02:18:11.810Z,98072.22
2023-01-07T02:20:13.158Z,98075.53
2023-01-07T02:22:14.502Z,98078.06
2023-01-07T02:24:15.836Z,98076.31
2023-01-07T02:26:17.131Z,98077.97
2023-01-07T02:28:18.425Z,98082.22
2023-01-07T02:30:19.914Z,98084.66
2023-01-07T02:32:21.245Z,98068.41
2023-01-07T02:34:22.542Z,98067.53
2023-01-07T02:36:23.886Z,98059.88
2023-01-07T02:38:25.182Z,98059.03
2023-01-07T02:40:26.487Z,98055.63
2023-01-07T02:42:27.803Z,98052.81
2023-01-07T02:44:29.129Z,98059.69
2023-01-07T02:46:30.426Z,98057.16
2023-01-07T02:48:31.830Z,98056.34
2023-01-07T02:50:33.131Z,98058.97
2023-01-07T02:52:34.432Z,98051.31
2023-01-07T02:54:35.767Z,98056.41
2023-01-07T02:56:37.064Z,98053.00
2023-01-07T02:58:38.366Z,98054.72
2023-01-07T03:00:39.739Z,98053.94
2023-01-07T03:02:41.071Z,98056.50
2023-01-07T03:04:42.384Z,98058.25
2023-01-07T03:06:43.684Z,98060.88
2023-01-07T03:08:44.999Z,98059.22
2023-01-07T03:10:46.563Z,98060.91
2023-01-07T03:12:47.865Z,98057.44
2023-01-07T03:14:49.208Z,98048.16
2023-01-07T03:16:50.575Z,98057.50
2023-01-07T03:18:52.070Z,98051.56
2023-01-07T03:20:53.358Z,98050.75
2023-01-07T03:22:54.740Z,98050.81
2023-01-07T03:24:56.036Z,98050.03
2023-01-07T03:26:57.393Z,98052.59
2023-01-07T03:28:58.688Z,98053.44
2023-01-07T03:31:00.036Z,98048.25
2023-01-07T03:33:01.620Z,98042.31
2023-01-07T03:35:02.959Z,98044.94
2023-01-07T03:37:04.271Z,98042.38
2023-01-07T03:39:05.891Z,98044.16
2023-01-07T03:41:07.799Z,98039.09
2023-01-07T03:43:09.095Z,98037.38
2023-01-07T03:45:10.430Z,98034.00
2023-01-07T03:47:12.088Z,98029.72
2023-01-07T03:49:13.424Z,98042.44
2023-01-07T03:51:14.759Z,98035.50
2023-01-07T03:53:16.099Z,98035.50
2023-01-07T03:55:17.424Z,98032.94
2023-01-07T03:57:18.712Z,98027.81
2023-01-07T03:59:20.025Z,98032.88
2023-01-07T04:01:21.507Z,98026.91
2023-01-07T04:03:22.879Z,98033.72
2023-01-07T04:05:24.175Z,98027.59
2023-01-07T04:07:25.515Z,98022.53
2023-01-07T04:09:26.808Z,98019.97
2023-01-07T04:11:28.142Z,98016.63
2023-01-07T04:13:29.435Z,98017.47
2023-01-07T04:15:30.785Z,98022.53
2023-01-07T04:17:32.094Z,98026.84
2023-01-07T04:19:33.464Z,98024.97
2023-01-07T04:21:34.812Z,98019.00
2023-01-07T04:23:36.158Z,97938.44
2023-01-07T04:25:37.456Z,98015.59
2023-01-07T04:27:38.750Z,98027.50
2023-01-07T04:29:40.074Z,98021.53
2023-01-07T04:31:41.411Z,98023.31
2023-01-07T04:33:42.766Z,98018.25
2023-01-07T04:35:44.067Z,98022.53
2023-01-07T04:37:45.368Z,98017.47
2023-01-07T04:39:46.703Z,98022.63
2023-01-07T04:41:48.045Z,98020.94
2023-01-07T04:43:49.378Z,98011.66
2023-01-07T04:45:50.727Z,98011.66
2023-01-07T04:47:52.028Z,98018.50
2023-01-07T04:49:53.350Z,98010.03
2023-01-07T04:51:54.716Z,98010.88
2023-01-07T04:53:58.368Z,97999.81
2023-01-07T04:55:59.671Z,98003.31
2023-01-07T04:58:00.970Z,98003.38
2023-01-07T05:00:02.275Z,98005.09
2023-01-07T05:02:03.728Z,98003.38
2023-01-07T05:04:05.166Z,98006.81
2023-01-07T05:06:06.786Z,98004.25
2023-01-07T05:08:08.104Z,98005.97
2023-01-07T05:10:09.763Z,98005.06
2023-01-07T05:12:11.241Z,98004.97
2023-01-07T05:14:12.570Z,98004.03
2023-01-07T05:16:13.892Z,98006.59
2023-01-07T05:18:15.257Z,98003.88
2023-01-07T05:20:16.550Z,97851.00
2023-01-07T05:22:17.880Z,98002.84
2023-01-07T05:24:19.255Z,98002.81
2023-01-07T05:26:20.607Z,98005.38
2023-01-07T05:28:21.935Z,98003.69
2023-01-07T05:30:23.238Z,97999.41
2023-01-07T05:32:24.548Z,97993.44
2023-01-07T05:34:25.878Z,98002.75
2023-01-07T05:36:27.172Z,97999.41
2023-01-07T05:38:28.491Z,98010.34
2023-01-07T05:40:29.830Z,98002.63
2023-01-07T05:42:31.152Z,98002.63
2023-01-07T05:44:32.485Z,98002.59
2023-01-07T05:46:33.867Z,98007.72
2023-01-07T05:48:35.309Z,98002.66
2023-01-07T05:50:36.645Z,98009.50
2023-01-07T05:52:37.975Z,98008.69
2023-01-07T05:54:39.275Z,97999.38
2023-01-07T05:56:40.687Z,98004.56
2023-01-07T05:58:41.983Z,98002.88
2023-01-07T06:00:43.582Z,98013.94
2023-01-07T06:02:44.906Z,98000.38
2023-01-07T06:04:46.250Z,98010.66
2023-01-07T06:06:47.580Z,98006.47
2023-01-07T06:08:48.888Z,98003.09
2023-01-07T06:10:50.217Z,98011.72
2023-01-07T06:12:51.536Z,98004.91
2023-01-07T06:14:52.826Z,98002.34
2023-01-07T06:16:54.135Z,98008.28
2023-01-07T06:18:55.477Z,98004.00
2023-01-07T06:20:56.809Z,98007.44
2023-01-07T06:22:58.232Z,98001.50
2023-01-07T06:24:59.521Z,98007.53
2023-01-07T06:27:00.810Z,98009.34
2023-01-07T06:29:02.164Z,98011.16
2023-01-07T06:31:03.528Z,98008.66
2023-01-07T06:33:05.615Z,98013.03
2023-01-07T06:35:07.032Z,98007.06
2023-01-07T06:37:08.389Z,98008.72
2023-01-07T06:39:09.693Z,98011.25
2023-01-07T06:41:11.045Z,98012.91
2023-01-07T06:43:12.377Z,98010.31
2023-01-07T06:45:13.744Z,98008.56
2023-01-07T06:47:15.044Z,98004.13
2023-01-07T06:49:16.365Z,98004.84
2023-01-07T06:51:17.721Z,98014.00
2023-01-07T06:53:19.064Z,98013.88
2023-01-07T06:55:20.357Z,98016.31
2023-01-07T06:57:21.690Z,98008.56
2023-01-07T06:59:23.008Z,98004.25
2023-01-07T07:01:24.513Z,97999.13
2023-01-07T07:03:25.891Z,98005.22
2023-01-07T07:05:27.185Z,98001.84
2023-01-07T07:07:28.476Z,98006.94
2023-01-07T07:09:29.775Z,98004.41
2023-01-07T07:11:31.078Z,98001.81
2023-01-07T07:13:32.361Z,98005.25
2023-01-07T07:15:33.712Z,98006.09
2023-01-07T07:17:35.027Z,98008.69
2023-01-07T07:19:36.371Z,98006.09
2023-01-07T07:21:37.675Z,97998.38
2023-01-07T07:23:38.966Z,98002.66
2023-01-07T07:25:40.271Z,97997.63
2023-01-07T07:27:41.647Z,98013.81
2023-01-07T07:29:43.007Z,98006.22
2023-01-07T07:31:44.359Z,98004.53
2023-01-07T07:33:45.713Z,98001.25
2023-01-07T07:35:47.104Z,98006.72
2023-01-07T07:37:48.391Z,98005.88
2023-01-07T07:39:49.687Z,98005.88
2023-01-07T07:41:51.026Z,98006.72
2023-01-07T07:43:52.318Z,98010.94
2023-01-07T07:45:53.638Z,98012.69
2023-01-07T07:47:54.988Z,98006.78
2023-01-07T07:49:56.315Z,98006.81
2023-01-07T07:51:57.609Z,98008.56
2023-01-07T07:53:58.922Z,98009.47
2023-01-07T07:56:00.253Z,98011.19
2023-01-07T07:58:01.581Z,98009.50
2023-01-07T08:00:02.879Z,98012.84
2023-01-07T08:02:04.308Z,98009.50
2023-01-07T08:04:05.686Z,98006.94
2023-01-07T08:06:07.051Z,98012.88
2023-01-07T08:08:11.561Z,98003.38
2023-01-07T08:10:12.941Z,98006.78
2023-01-07T08:12:14.230Z,98005.94
2023-01-07T08:14:18.483Z,98015.28
2023-01-07T08:16:20.025Z,98006.75
2023-01-07T08:18:21.380Z,98011.78
2023-01-07T08:20:22.753Z,98006.63
2023-01-07T08:22:24.120Z,98005.63
2023-01-07T08:24:25.431Z,97999.66
2023-01-07T08:26:26.722Z,98007.28
2023-01-07T08:28:28.054Z,98008.97
2023-01-07T08:30:29.354Z,98005.50
2023-01-07T08:32:30.687Z,98002.00
2023-01-07T08:34:32.003Z,97996.84
2023-01-07T08:36:33.309Z,98003.28
2023-01-07T08:38:35.084Z,98005.03
2023-01-07T08:40:36.420Z,98009.00
2023-01-07T08:42:37.731Z,97997.66
2023-01-07T08:44:39.206Z,98003.56
2023-01-07T08:46:41.796Z,97997.78
2023-01-07T08:48:43.126Z,98000.38
2023-01-07T08:50:44.487Z,98003.84
2023-01-07T08:52:45.852Z,98011.69
2023-01-07T08:54:48.162Z,98004.03
2023-01-07T08:56:49.603Z,98013.53
2023-01-07T08:58:50.938Z,98006.66
2023-01-07T09:00:55.303Z,98007.56
2023-01-07T09:02:56.732Z,97997.66
2023-01-07T09:04:58.046Z,97995.28
2023-01-07T09:06:59.338Z,97996.59
2023-01-07T09:09:00.651Z,98003.41
2023-01-07T09:11:01.953Z,97997.94
2023-01-07T09:13:03.328Z,97998.59
2023-01-07T09:15:04.668Z,97995.88
2023-01-07T09:17:06.015Z,97991.47
2023-01-07T09:19:07.310Z,97992.31
2023-01-07T09:21:08.609Z,97992.19
2023-01-07T09:23:09.970Z,97986.19
2023-01-07T09:25:11.300Z,97987.75
2023-01-07T09:27:12.631Z,97988.53
2023-01-07T09:29:14.035Z,97983.41
2023-01-07T09:31:15.423Z,97981.66
2023-01-07T09:33:17.365Z,97979.09
2023-01-07T09:35:18.814Z,97983.28
2023-01-07T09:37:20.347Z,97987.47
2023-01-07T09:39:21.650Z,97991.69
2023-01-07T09:41:22.986Z,97981.53
2023-01-07T09:43:25.163Z,97992.47
2023-01-07T09:45:26.616Z,97983.09
2023-01-07T09:47:27.965Z,97978.81
2023-01-07T09:49:29.301Z,97980.47
2023-01-07T09:51:33.367Z,97973.59
2023-01-07T09:53:34.715Z,97976.06
2023-01-07T09:55:36.025Z,97982.81
2023-01-07T09:57:40.482Z,97981.84
2023-01-07T09:59:41.790Z,97975.03
2023-01-07T10:01:43.117Z,97982.03
2023-01-07T10:03:44.467Z,97987.28
2023-01-07T10:05:45.860Z,97979.09
2023-01-07T10:07:47.153Z,97974.91
2023-01-07T10:09:48.528Z,97978.31
2023-01-07T10:11:49.976Z,97971.56
2023-01-07T10:13:51.282Z,97974.25
2023-01-07T10:15:52.625Z,97969.16
2023-01-07T10:17:53.951Z,97967.56
2023-01-07T10:19:55.280Z,97959.09
2023-01-07T10:21:56.730Z,97960.03
2023-01-07T10:23:58.107Z,97950.16
2023-01-07T10:25:59.410Z,97949.31
2023-01-07T10:28:00.732Z,97945.97
2023-01-07T10:30:02.675Z,97939.22
2023-01-07T10:32:04.085Z,97940.06
2023-01-07T10:34:05.423Z,97935.88
2023-01-07T10:36:06.858Z,97932.53
2023-01-07T10:38:08.146Z,97933.38
2023-01-07T10:40:11.861Z,97930.03
2023-01-07T10:42:13.161Z,97933.47
2023-01-07T10:44:14.506Z,97923.25
2023-01-07T10:46:15.936Z,97918.13
2023-01-07T10:48:17.388Z,97917.28
2023-01-07T10:50:18.724Z,97918.94
2023-01-07T10:52:20.134Z,97918.94
2023-01-07T10:54:21.478Z,97918.97
2023-01-07T10:56:22.907Z,97917.34
2023-01-07T10:58:24.206Z,97915.78
2023-01-07T11:00:25.531Z,97921.03
2023-01-07T11:02:27.649Z,97919.41
2023-01-07T11:04:29.278Z,97916.84
2023-01-07T11:06:30.612Z,97914.25
2023-01-07T11:08:31.921Z,97907.31
2023-01-07T11:10:33.244Z,97903.00
2023-01-07T11:12:34.549Z,97914.84
2023-01-07T11:14:35.960Z,97904.53
2023-01-07T11:16:37.357Z,97892.53
2023-01-07T11:18:38.669Z,97885.53
2023-01-07T11:20:42.760Z,97887.13
2023-01-07T11:22:44.050Z,97885.31
2023-01-07T11:24:45.380Z,97880.97
2023-01-07T11:26:46.671Z,97873.25
2023-01-07T11:28:49.257Z,97872.34
2023-01-07T11:30:50.592Z,97881.00
2023-01-07T11:32:52.028Z,97870.22
2023-01-07T11:34:53.420Z,97869.72
2023-01-07T11:36:54.797Z,97859.09
2023-01-07T11:39:02.290Z,97857.72
2023-01-07T11:41:03.822Z,97855.09
2023-01-07T11:43:05.226Z,97856.00
2023-01-07T11:45:06.615Z,97852.59
2023-01-07T11:47:07.946Z,97847.59
2023-01-07T11:49:09.273Z,97843.50
2023-01-07T11:51:11.022Z,97839.22
2023-01-07T11:53:12.313Z,97845.13
2023-01-07T11:55:13.664Z,97837.97
2023-01-07T11:57:15.009Z,97840.03
2023-01-07T11:59:16.956Z,97837.44
2023-01-07T12:01:18.370Z,97837.28
2023-01-07T12:03:20.621Z,97828.91
2023-01-07T12:05:22.059Z,97823.56
2023-01-07T12:07:24.874Z,97822.84
2023-01-07T12:09:26.284Z,97823.09
2023-01-07T12:11:27.626Z,97821.31
2023-01-07T12:13:28.968Z,97815.78
2023-01-07T12:15:31.095Z,97815.94
2023-01-07T12:17:32.427Z,97816.00
2023-01-07T12:19:37.795Z,97819.47
2023-01-07T12:21:39.911Z,97813.38
2023-01-07T12:23:41.276Z,97809.88
2023-01-07T12:25:42.575Z,97803.38
2023-01-07T12:27:43.904Z,97807.38
2023-01-07T12:29:45.259Z,97801.28
2023-01-07T12:31:46.685Z,97796.03
2023-01-07T12:33:48.193Z,97806.25
2023-01-07T12:35:49.492Z,97792.63
2023-01-07T12:37:50.938Z,97790.84
2023-01-07T12:39:54.076Z,97790.06
2023-01-07T12:41:56.387Z,97784.25
2023-01-07T12:43:58.192Z,97787.63
2023-01-07T12:46:00.436Z,97786.66
2023-01-07T12:48:02.900Z,97778.97
2023-01-07T12:50:04.375Z,97778.75
2023-01-07T12:52:05.712Z,97779.56
2023-01-07T12:54:07.017Z,97768.16
2023-01-07T12:56:08.355Z,97772.66
2023-01-07T12:58:09.649Z,97772.84
2023-01-07T13:00:11.017Z,97772.53
2023-01-07T13:02:12.455Z,97793.28
2023-01-07T13:04:13.816Z,97769.38
2023-01-07T13:06:15.242Z,97764.50
2023-01-07T13:08:16.539Z,97756.75
2023-01-07T13:10:17.953Z,97754.66
2023-01-07T13:12:41.577Z,97760.34
2023-01-07T13:14:44.239Z,97752.38
2023-01-07T13:16:45.675Z,97754.94
2023-01-07T13:18:46.971Z,97756.38
2023-01-07T13:20:48.262Z,97748.72
2023-01-07T13:22:49.597Z,97747.25
2023-01-07T13:24:55.143Z,97747.09
2023-01-07T13:26:58.126Z,97741.97
2023-01-07T13:29:02.193Z,97751.38
2023-01-07T13:31:03.500Z,97750.94
2023-01-07T13:33:04.811Z,97748.38
2023-01-07T13:35:09.097Z,97750.31
2023-01-07T13:37:10.413Z,97746.41
2023-01-07T13:39:11.755Z,97747.91
2023-01-07T13:41:13.091Z,97747.28
2023-01-07T13:43:14.388Z,97741.25
2023-01-07T13:45:15.762Z,97737.91
2023-01-07T13:47:17.127Z,97737.91
2023-01-07T13:49:18.462Z,97737.94
2023-01-07T13:51:19.758Z,97740.53
2023-01-07T13:53:21.058Z,97743.09
2023-01-07T13:55:22.449Z,97743.97
2023-01-07T13:57:23.796Z,97739.75
2023-01-07T13:59:25.106Z,97735.56
2023-01-07T14:01:26.548Z,97735.56
2023-01-07T14:03:27.945Z,97736.38
2023-01-07T14:05:29.361Z,97745.78
2023-01-07T14:07:30.654Z,97741.50
2023-01-07T14:09:32.006Z,97743.19
2023-01-07T14:11:36.312Z,97737.16
2023-01-07T14:13:40.490Z,97744.72
2023-01-07T14:15:41.840Z,97740.31
2023-01-07T14:17:43.160Z,97737.69
2023-01-07T14:19:50.264Z,97730.47
2023-01-07T14:21:51.597Z,97725.28
2023-01-07T14:23:52.905Z,97722.59
2023-01-07T14:25:54.336Z,97731.91
2023-01-07T14:27:55.692Z,97719.56
2023-01-07T14:30:02.825Z,97722.88
2023-01-07T14:32:12.515Z,97708.88
2023-01-07T14:34:16.578Z,97700.47
2023-01-07T14:36:17.923Z,97717.88
2023-01-07T14:38:19.223Z,97700.53
2023-01-07T14:40:20.566Z,97717.75
2023-01-07T14:42:21.955Z,97702.31
2023-01-07T14:44:23.301Z,97698.53
2023-01-07T14:46:24.720Z,97698.53
2023-01-07T14:48:26.127Z,97697.13
2023-01-07T14:50:27.435Z,97695.31
2023-01-07T14:52:28.737Z,97695.75
2023-01-07T14:54:30.115Z,97695.06
2023-01-07T14:56:31.415Z,97695.09
2023-01-07T14:58:33.016Z,97691.03
2023-01-07T15:00:34.339Z,97689.78
2023-01-07T15:02:35.789Z,97689.63
2023-01-07T15:04:37.200Z,97678.97
2023-01-07T15:06:41.991Z,97685.09
2023-01-07T15:09:02.145Z,97686.06
2023-01-07T15:11:21.983Z,97684.66
2023-01-07T15:13:41.841Z,97680.19
2023-01-07T15:16:01.472Z,97679.63
2023-01-07T15:18:02.836Z,97681.56
2023-01-07T15:20:04.188Z,97677.47
2023-01-07T15:22:07.895Z,97675.88
2023-01-07T15:24:09.474Z,97676.78
2023-01-07T15:26:10.815Z,97670.00
2023-01-07T15:28:12.146Z,97676.00
2023-01-07T15:30:13.495Z,97674.22
2023-01-07T15:32:14.823Z,97674.16
2023-01-07T15:34:16.154Z,97670.63
2023-01-07T15:36:17.457Z,97667.06
2023-01-07T15:38:18.787Z,97665.13
2023-01-07T15:40:20.109Z,97660.66
2023-01-07T15:42:21.963Z,97666.44
2023-01-07T15:44:29.013Z,97665.44
2023-01-07T15:46:33.757Z,97665.25
2023-01-07T15:48:35.102Z,97663.44
2023-01-07T15:50:40.895Z,97656.66
2023-01-07T15:52:42.211Z,97656.75
2023-01-07T15:54:43.571Z,97662.03
2023-01-07T15:56:45.190Z,97651.97
2023-01-07T15:58:48.694Z,97646.16
2023-01-07T16:00:50.035Z,97647.03
2023-01-07T16:02:51.335Z,97644.78
2023-01-07T16:04:52.763Z,97652.44
2023-01-07T16:06:54.123Z,97649.00
2023-01-07T16:08:58.483Z,97651.47
2023-01-07T16:10:59.837Z,97643.72
2023-01-07T16:13:01.400Z,97642.00
2023-01-07T16:15:04.919Z,97635.97
2023-01-07T16:17:06.550Z,97631.69
2023-01-07T16:19:07.839Z,97635.97
2023-01-07T16:21:09.139Z,97634.19
2023-01-07T16:23:10.525Z,97633.38
2023-01-07T16:25:11.828Z,97633.41
2023-01-07T16:27:13.205Z,97633.41
2023-01-07T16:29:16.031Z,97636.81
2023-01-07T16:31:17.446Z,97630.84
2023-01-07T16:33:18.867Z,97624.06
2023-01-07T16:35:20.173Z,97621.56
2023-01-07T16:37:21.566Z,97628.38
2023-01-07T16:39:22.883Z,97628.38
2023-01-07T16:41:24.434Z,97624.97
2023-01-07T16:43:26.245Z,97620.00
2023-01-07T16:45:27.625Z,97616.50
2023-01-07T16:47:28.975Z,97611.44
2023-01-07T16:49:30.546Z,97614.91
2023-01-07T16:51:31.847Z,97615.78
2023-01-07T16:53:36.862Z,97614.16
2023-01-07T16:55:38.406Z,97604.06
2023-01-07T16:57:41.636Z,97604.94
2023-01-07T16:59:43.274Z,97607.50
2023-01-07T17:01:44.854Z,97598.59
2023-01-07T17:03:46.246Z,97604.56
2023-01-07T17:05:47.941Z,97596.91
2023-01-07T17:07:49.245Z,97591.59
2023-01-07T17:09:51.995Z,97595.56
2023-01-07T17:11:53.330Z,97585.31
2023-01-07T17:13:54.632Z,97584.88
2023-01-07T17:15:56.326Z,97582.66
2023-01-07T17:18:04.079Z,97588.69
2023-01-07T17:20:05.367Z,97579.34
2023-01-07T17:22:06.663Z,97582.56
2023-01-07T17:24:08.337Z,97571.81
2023-01-07T17:26:09.634Z,97576.44
2023-01-07T17:28:12.459Z,97576.94
2023-01-07T17:30:14.198Z,97576.09
2023-01-07T17:32:15.499Z,97575.66
2023-01-07T17:34:17.571Z,97574.66
2023-01-07T17:36:19.254Z,97568.00
2023-01-07T17:38:20.570Z,97570.06
2023-01-07T17:40:24.883Z,97573.28
2023-01-07T17:42:45.055Z,97570.66
2023-01-07T17:44:48.449Z,97573.13
2023-01-07T17:46:50.124Z,97566.09
2023-01-07T17:48:51.731Z,97574.41
2023-01-07T17:50:54.033Z,97558.94
2023-01-07T17:52:55.384Z,97569.84
2023-01-07T17:54:56.948Z,97556.78
2023-01-07T17:56:58.305Z,97554.13
2023-01-07T17:58:59.638Z,97556.47
2023-01-07T18:01:01.040Z,97547.88
2023-01-07T18:03:02.576Z,97394.84
2023-01-07T18:05:03.998Z,97544.31
2023-01-07T18:07:11.399Z,97535.69
2023-01-07T18:09:13.708Z,97538.34
2023-01-07T18:11:33.885Z,97541.81
2023-01-07T18:13:35.206Z,97540.25
2023-01-07T18:15:36.514Z,97537.75
2023-01-07T18:17:37.819Z,97533.66
2023-01-07T18:19:39.920Z,97531.78
2023-01-07T18:21:41.330Z,97527.28
2023-01-07T18:23:42.622Z,97524.38
2023-01-07T18:25:44.261Z,97518.25
2023-01-07T18:27:45.863Z,97519.06
2023-01-07T18:29:47.199Z,97519.00
2023-01-07T18:31:48.536Z,97534.41
2023-01-07T18:33:49.875Z,97525.06
2023-01-07T18:35:51.204Z,97523.25
2023-01-07T18:37:52.500Z,97529.06
2023-01-07T18:39:56.462Z,97527.41
2023-01-07T18:42:00.460Z,97529.13
2023-01-07T18:44:01.785Z,97530.00
2023-01-07T18:46:03.194Z,97531.06
2023-01-07T18:48:04.562Z,97533.63
2023-01-07T18:50:06.101Z,97526.78
2023-01-07T18:52:07.518Z,97530.22
2023-01-07T18:54:08.813Z,97527.66
2023-01-07T18:56:11.854Z,97523.59
2023-01-07T18:58:13.542Z,97527.00
2023-01-07T19:00:15.968Z,97528.53
2023-01-07T19:02:19.945Z,97509.94
2023-01-07T19:04:21.537Z,97508.88
2023-01-07T19:06:22.870Z,97512.84
2023-01-07T19:08:24.435Z,97526.38
2023-01-07T19:10:28.783Z,97522.81
2023-01-07T19:12:30.442Z,97522.81
2023-01-07T19:14:31.767Z,97521.75
2023-01-07T19:16:33.127Z,97536.16
2023-01-07T19:18:34.763Z,97525.72
2023-01-07T19:20:39.353Z,97535.28
2023-01-07T19:22:40.654Z,97521.38
2023-01-07T19:24:41.957Z,97512.66
2023-01-07T19:26:43.578Z,97515.69
2023-01-07T19:28:44.913Z,97513.00
2023-01-07T19:30:46.679Z,97507.94
2023-01-07T19:32:47.971Z,97509.25
2023-01-07T19:34:52.877Z,97504.41
2023-01-07T19:36:54.218Z,97497.97
2023-01-07T19:38:55.515Z,97492.31
2023-01-07T19:40:57.872Z,97491.25
2023-01-07T19:42:59.179Z,97480.13
2023-01-07T19:45:00.623Z,97475.22
2023-01-07T19:47:01.924Z,97486.50
2023-01-07T19:49:03.215Z,97489.84
2023-01-07T19:51:05.051Z,97491.69
2023-01-07T19:53:06.452Z,97490.91
2023-01-07T19:55:07.800Z,97483.47
2023-01-07T19:57:09.773Z,97488.47
2023-01-07T19:59:11.568Z,97483.59
2023-01-07T20:01:13.024Z,97481.94
2023-01-07T20:03:17.838Z,97490.16
2023-01-07T20:05:19.144Z,97491.28
2023-01-07T20:07:21.780Z,97476.19
2023-01-07T20:09:26.309Z,97474.59
2023-01-07T20:11:27.636Z,97466.22
2023-01-07T20:13:28.927Z,97467.16
2023-01-07T20:15:30.623Z,97472.28
2023-01-07T20:17:33.632Z,97473.06
2023-01-07T20:19:35.410Z,97463.66
2023-01-07T20:21:36.742Z,97469.50
2023-01-07T20:23:38.050Z,97465.97
2023-01-07T20:25:39.450Z,97464.13
2023-01-07T20:27:41.334Z,97452.03
2023-01-07T20:29:43.003Z,97448.59
2023-01-07T20:31:44.892Z,97453.47
2023-01-07T20:33:46.725Z,97457.63
2023-01-07T20:35:48.794Z,97446.41
2023-01-07T20:37:50.886Z,97453.09
2023-01-07T20:39:55.271Z,97447.97
2023-01-07T20:41:57.247Z,97452.16
2023-01-07T20:43:58.569Z,97451.28
2023-01-07T20:45:59.914Z,97444.44
2023-01-07T21:22:03.570Z,97435.38
2023-01-07T21:31:28.896Z,97431.72
2023-01-07T21:33:30.225Z,97426.69
2023-01-07T21:40:25.788Z,97416.22
2023-01-07T21:44:53.847Z,97395.38
2023-01-07T21:46:55.165Z,97410.06
2023-01-07T21:48:59.736Z,97414.88
2023-01-07T21:51:01.028Z,97408.09
2023-01-07T21:55:30.359Z,97405.28
2023-01-07T21:57:33.583Z,97393.16
2023-01-07T21:59:36.427Z,97395.41
2023-01-07T22:01:37.850Z,97400.53
2023-01-07T22:03:44.633Z,97402.69
2023-01-07T22:05:52.328Z,97256.06
2023-01-07T22:07:53.671Z,97397.50
2023-01-07T22:09:55.029Z,97397.81
2023-01-07T22:11:57.391Z,97398.41
2023-01-07T22:13:58.730Z,97391.78
2023-01-07T22:18:26.475Z,97396.28
2023-01-07T22:20:27.790Z,97385.28
2023-01-07T22:22:31.971Z,97386.06
2023-01-07T22:24:33.313Z,97387.72
2023-01-07T22:26:39.129Z,97379.72
2023-01-07T22:28:40.635Z,97376.91
2023-01-07T22:30:41.922Z,97378.59
2023-01-07T22:32:43.310Z,97376.66
2023-01-07T22:34:44.629Z,97382.19
2023-01-07T22:36:45.927Z,97378.31
2023-01-07T22:38:47.359Z,97375.75
2023-01-07T22:40:48.701Z,97373.19
2023-01-07T22:42:53.240Z,97371.66
2023-01-07T22:44:54.601Z,97376.50
2023-01-07T22:46:56.548Z,97380.31
2023-01-07T22:48:57.868Z,97374.63
2023-01-07T22:50:59.192Z,97373.91
2023-01-07T22:53:00.611Z,97368.34
2023-01-07T22:55:01.995Z,97358.56
2023-01-07T22:57:03.328Z,97364.69
2023-01-07T22:59:04.718Z,97358.31
2023-01-07T23:01:06.039Z,97368.59
2023-01-07T23:03:07.520Z,97366.91
2023-01-07T23:05:08.852Z,97367.81
2023-01-07T23:07:10.149Z,97376.06
2023-01-07T23:09:11.889Z,97371.53
2023-01-07T23:11:34.144Z,97373.34
2023-01-07T23:13:35.491Z,97363.16
2023-01-07T23:15:36.815Z,97360.56
2023-01-07T23:17:38.134Z,97355.97
2023-01-07T23:19:39.453Z,97355.69
2023-01-07T23:21:40.747Z,97353.72
2023-01-07T23:23:45.089Z,97362.00
2023-01-07T23:25:46.457Z,97358.38
2023-01-07T23:27:47.761Z,97345.47
2023-01-07T23:29:49.226Z,97349.75
2023-01-07T23:31:50.747Z,97344.53
2023-01-07T23:33:52.175Z,97345.28
2023-01-07T23:35:53.475Z,97341.31
2023-01-07T23:37:54.774Z,97336.75
2023-01-07T23:39:56.183Z,97338.22
2023-01-07T23:41:57.531Z,97332.81
2023-01-07T23:43:59.035Z,97328.47
2023-01-07T23:46:00.374Z,97328.56
2023-01-07T23:48:01.730Z,97320.97
2023-01-07T23:50:03.249Z,97324.94
2023-01-07T23:52:04.550Z,97321.13
2023-01-07T23:54:05.865Z,97322.16
2023-01-07T23:56:07.319Z,97317.56
2023-01-07T23:58:08.606Z,97310.06
